Terminal Aerodrome Forecast
Issued by NWS

Current Version | Previous Version | Text Only | Print | Product List | Glossary On
Versions: 1 2 3 4 5 6 7 8 9 10 11 12 13 14 15 16 17
022
FTUS42 KJAX 291146 CCA
TAFCRG
TAF COR
KCRG 291146Z 2912/3012 32006KT 5SM BR BKN004
     FM291300 32006KT P6SM BKN010
     FM291400 34006KT P6SM FEW050 SCT250
     FM291800 11008KT P6SM SCT050
     FM300200 VRB02KT P6SM FEW250=

USA.gov is the U.S. government's official web portal to all federal, state and local government web resources and services.